Napier, West Virginia
Current Conditions -  °F | °C
As of 5:15 AM on Sunday 25 Jan 2015 (Local Time) from KW22 Reporting Station
Haze Haze  
Wind Chill: 23°   Ceiling: 600
Heat Index: 30°   Visibility: 4mi
Dew Point: 30°   Wind: 7mph
Humidity: 100%   Direction: 200°SSW
Pressure: 29.77"   Gusts: NA
Location:  38.8°N, 80.59°W
Report Text: KW22 251015Z AUTO 20006KT 4SM BR BKN006 OVC034 M01/M01 A2977 RMK AO2
Loading
Personal Weather Stations






























Interactive Weather Map New forecast layout! Learn more

10-Day Weather Forecast

Advertisements
Track Severe Weather on mobile